This is the latest recevied weather packets stored in our database for station/object W0CHP-13. If no packets are shown the sender has not sent any weather packets the latest 10 day(s).
| Time | Temp. | Humidity | Pressure | Rain* | Wind** | Luminosity | Snow |
|---|---|---|---|---|---|---|---|
| 1777734195 | 17.78° C | 32% | 1017 hPa | 0 mm | - | 527 W/m² | - |
| 1777733597 | 16.67° C | 34% | 1017 hPa | 0 mm | - | 497 W/m² | - |
| 1777732995 | 15.56° C | 34% | 1017 hPa | 0 mm | - | 469 W/m² | - |
| 1777732397 | 15° C | 32% | 1017.2 hPa | 0 mm | - | 441 W/m² | - |
| 1777732038 | 15.56° C | 31% | 1017.2 hPa | 0 mm | - | 422 W/m² | - |
| 1777731436 | 15.56° C | 36% | 1017.2 hPa | 0 mm | - | 392 W/m² | - |
| 1777730838 | 15.56° C | 35% | 1017.2 hPa | 0 mm | - | 361 W/m² | - |
| 1777730237 | 14.44° C | 37% | 1017.5 hPa | 0 mm | - | 329 W/m² | - |
| 1777729635 | 13.33° C | 38% | 1017.5 hPa | 0 mm | - | 298 W/m² | - |
| 1777729037 | 11.67° C | 45% | 1017.5 hPa | 0 mm | - | 266 W/m² | - |
| 1777728435 | 10.56° C | 43% | 1017.5 hPa | 0 mm | - | 238 W/m² | - |
| 1777727838 | 8.89° C | 46% | 1017.7 hPa | 0 mm | - | 177 W/m² | - |
| 1777727236 | 8.33° C | 48% | 1017.7 hPa | 0 mm | - | 135 W/m² | - |
| 1777726638 | 7.78° C | 56% | 1017.7 hPa | 0 mm | - | 110 W/m² | - |
| 1777726036 | 6.67° C | 64% | 1017.5 hPa | 0 mm | - | 66 W/m² | - |
| 1777725438 | 5° C | 65% | 1017.5 hPa | 0 mm | - | 38 W/m² | - |
| 1777724836 | 3.89° C | 67% | 1017.9 hPa | 0 mm | - | 36 W/m² | - |
| 1777724235 | 3.33° C | 64% | 1017.9 hPa | 0 mm | - | 33 W/m² | - |
| 1777723637 | 2.78° C | 63% | 1017.5 hPa | 0 mm | - | 30 W/m² | - |
| 1777723035 | 2.22° C | 64% | 1017.5 hPa | 0 mm | - | 27 W/m² | - |
| 1777722437 | 2.22° C | 63% | 1017.5 hPa | 0 mm | - | 23 W/m² | - |
| 1777721836 | 2.22° C | 63% | 1017.5 hPa | 0 mm | - | 19 W/m² | - |
| 1777721238 | 2.22° C | 62% | 1017.5 hPa | 0 mm | - | 15 W/m² | - |
| 1777720636 | 1.67° C | 62% | 1017.5 hPa | 0 mm | - | 10 W/m² | - |
| 1777720038 | 1.67° C | 61% | 1017.3 hPa | 0 mm | - | 5 W/m² | - |
* Rain latest hour (hover to see other rain measurements)
** Current wind speed in m/s (hover to see current wind gust speed)